createdAt,value
2017-01-19T00:00:12.891Z,99.99
2017-01-19T00:01:24.277Z,99.99
2017-01-19T00:02:35.672Z,99.99
2017-01-19T00:03:47.112Z,99.99
2017-01-19T00:04:58.506Z,99.99
2017-01-19T00:06:09.917Z,99.99
2017-01-19T00:07:21.516Z,99.99
2017-01-19T00:08:32.910Z,99.99
2017-01-19T00:09:44.354Z,99.99
2017-01-19T00:10:55.745Z,99.99
2017-01-19T00:12:07.137Z,99.99
2017-01-19T00:13:18.526Z,99.99
2017-01-19T00:14:29.935Z,99.99
2017-01-19T00:15:41.377Z,99.99
2017-01-19T00:16:52.768Z,99.99
2017-01-19T00:18:04.362Z,99.99
2017-01-19T00:19:15.753Z,99.99
2017-01-19T00:20:27.352Z,99.99
2017-01-19T00:21:38.799Z,99.99
2017-01-19T00:22:50.194Z,99.99
2017-01-19T00:24:01.588Z,99.99
2017-01-19T00:25:12.979Z,99.99
2017-01-19T00:26:24.379Z,99.99
2017-01-19T00:27:36.024Z,99.99
2017-01-19T00:28:47.409Z,99.99
2017-01-19T00:29:58.799Z,99.99
2017-01-19T00:31:10.194Z,99.99
2017-01-19T00:32:21.584Z,99.99
2017-01-19T00:33:33.035Z,99.99
2017-01-19T00:34:44.623Z,99.99
2017-01-19T00:35:56.017Z,99.99
2017-01-19T00:37:07.413Z,99.99
2017-01-19T00:38:18.799Z,99.99
2017-01-19T00:39:30.241Z,99.99
2017-01-19T00:40:41.628Z,99.99
2017-01-19T00:41:53.016Z,99.99
2017-01-19T00:43:04.413Z,99.99
2017-01-19T00:44:15.800Z,99.99
2017-01-19T00:45:27.249Z,99.99
2017-01-19T00:46:38.642Z,99.99
2017-01-19T00:47:50.030Z,99.99
2017-01-19T00:49:01.431Z,99.99
2017-01-19T00:50:12.823Z,99.99
2017-01-19T00:51:24.272Z,99.99
2017-01-19T00:52:35.667Z,99.99
2017-01-19T00:53:47.063Z,99.99
2017-01-19T00:54:58.459Z,99.99
2017-01-19T00:56:09.855Z,99.99
2017-01-19T00:57:21.300Z,99.99
2017-01-19T00:58:32.690Z,99.99
2017-01-19T00:59:44.285Z,99.99
2017-01-19T01:00:55.880Z,99.99
2017-01-19T01:02:07.271Z,99.99
2017-01-19T01:03:18.715Z,99.99
2017-01-19T01:04:30.337Z,99.99
2017-01-19T01:05:41.932Z,99.99
2017-01-19T01:06:53.527Z,99.99
2017-01-19T01:08:05.123Z,99.99
2017-01-19T01:09:16.564Z,99.99
2017-01-19T01:10:28.168Z,99.99
2017-01-19T01:11:39.556Z,99.99
2017-01-19T01:12:50.949Z,99.99
2017-01-19T01:14:02.348Z,99.99
2017-01-19T01:15:14.012Z,99.99
2017-01-19T01:16:25.398Z,99.99
2017-01-19T01:17:36.791Z,99.99
2017-01-19T01:18:48.185Z,99.99
2017-01-19T01:19:59.584Z,99.99
2017-01-19T01:21:11.031Z,99.99
2017-01-19T01:22:22.626Z,99.99
2017-01-19T01:23:34.016Z,99.99
2017-01-19T01:24:45.406Z,99.99
2017-01-19T01:25:56.804Z,99.99
2017-01-19T01:27:08.251Z,99.99
2017-01-19T01:28:19.638Z,99.99
2017-01-19T01:29:31.035Z,99.99
2017-01-19T01:30:42.452Z,99.99
2017-01-19T01:31:54.042Z,99.99
2017-01-19T01:33:05.481Z,99.99
2017-01-19T01:34:16.870Z,99.99
2017-01-19T01:35:28.268Z,99.99
2017-01-19T01:36:39.658Z,99.99
2017-01-19T01:37:51.059Z,99.99
2017-01-19T01:39:02.506Z,99.99
2017-01-19T01:40:13.893Z,99.99
2017-01-19T01:41:25.486Z,99.99
2017-01-19T01:42:37.086Z,99.99
2017-01-19T01:43:48.481Z,99.99
2017-01-19T01:44:59.922Z,99.99
2017-01-19T01:46:11.520Z,99.99
2017-01-19T01:47:22.941Z,99.99
2017-01-19T01:48:34.331Z,99.99
2017-01-19T01:49:45.721Z,99.99
2017-01-19T01:50:57.161Z,99.99
2017-01-19T01:52:08.571Z,99.99
2017-01-19T01:53:19.970Z,99.99
2017-01-19T01:54:31.361Z,99.99
2017-01-19T01:55:42.753Z,99.99
2017-01-19T01:56:54.202Z,99.99
2017-01-19T01:58:05.603Z,99.99
2017-01-19T01:59:16.998Z,99.99
2017-01-19T02:00:28.398Z,99.99
2017-01-19T02:01:39.790Z,99.99
2017-01-19T02:02:51.240Z,99.99
2017-01-19T02:04:02.627Z,99.99
2017-01-19T02:05:14.032Z,99.99
2017-01-19T02:06:25.420Z,99.99
2017-01-19T02:07:36.815Z,99.99
2017-01-19T02:08:48.256Z,99.99
2017-01-19T02:09:59.654Z,99.99
2017-01-19T02:11:11.050Z,99.99
2017-01-19T02:12:22.656Z,99.99
2017-01-19T02:13:34.070Z,99.99
2017-01-19T02:14:45.523Z,99.99
2017-01-19T02:15:56.919Z,99.99
2017-01-19T02:17:08.514Z,99.99
2017-01-19T02:18:19.910Z,99.99
2017-01-19T02:19:31.506Z,99.99
2017-01-19T02:20:42.948Z,99.99
2017-01-19T02:21:54.343Z,99.99
2017-01-19T02:23:05.729Z,99.99
2017-01-19T02:24:17.122Z,99.99
2017-01-19T02:25:28.515Z,99.99
2017-01-19T02:26:40.165Z,99.99
2017-01-19T02:27:51.564Z,99.99
2017-01-19T02:29:02.951Z,99.99
2017-01-19T02:30:14.342Z,99.99
2017-01-19T02:31:25.737Z,99.99
2017-01-19T02:32:37.184Z,99.99
2017-01-19T02:33:48.590Z,99.99
2017-01-19T02:35:00.192Z,99.99
2017-01-19T02:36:11.589Z,99.99
2017-01-19T02:37:23.001Z,99.99
2017-01-19T02:38:34.447Z,99.99
2017-01-19T02:39:46.244Z,99.99
2017-01-19T02:40:57.642Z,99.99
2017-01-19T02:42:09.247Z,99.99
2017-01-19T02:43:20.645Z,99.99
2017-01-19T02:44:32.294Z,99.99
2017-01-19T02:45:43.685Z,99.99
2017-01-19T02:46:55.079Z,99.99
2017-01-19T02:48:06.484Z,99.99
2017-01-19T02:49:17.877Z,99.99
2017-01-19T02:50:29.325Z,99.99
2017-01-19T02:51:40.723Z,99.99
2017-01-19T02:52:52.318Z,99.99
2017-01-19T02:54:03.915Z,99.99
2017-01-19T02:55:15.306Z,99.99
2017-01-19T02:56:26.746Z,99.99
2017-01-19T02:57:38.145Z,99.99
2017-01-19T02:58:49.559Z,99.99
2017-01-19T03:00:01.160Z,99.99
2017-01-19T03:01:12.556Z,99.99
2017-01-19T03:02:24.003Z,99.99
2017-01-19T03:03:35.411Z,99.99
2017-01-19T03:04:46.998Z,99.99
2017-01-19T03:05:58.398Z,99.99
2017-01-19T03:07:09.792Z,99.99
2017-01-19T03:08:21.240Z,99.99
2017-01-19T03:09:32.637Z,99.99
2017-01-19T03:10:44.029Z,99.99
2017-01-19T03:11:55.622Z,99.99
2017-01-19T03:13:07.017Z,99.99
2017-01-19T03:14:18.462Z,99.99
2017-01-19T03:15:29.854Z,99.99
2017-01-19T03:16:41.454Z,99.99
2017-01-19T03:17:52.856Z,99.99
2017-01-19T03:19:04.241Z,99.99
2017-01-19T03:20:15.706Z,99.99
2017-01-19T03:21:27.102Z,99.99
2017-01-19T03:22:38.895Z,99.99
2017-01-19T03:23:50.296Z,99.99
2017-01-19T03:25:01.691Z,99.99
2017-01-19T03:26:13.338Z,99.99
2017-01-19T03:27:24.735Z,99.99
2017-01-19T03:28:36.124Z,99.99
2017-01-19T03:29:47.554Z,99.99
2017-01-19T03:30:58.939Z,99.99
2017-01-19T03:32:10.387Z,99.99
2017-01-19T03:33:21.775Z,99.99
2017-01-19T03:34:33.171Z,99.99
2017-01-19T03:35:44.568Z,99.99
2017-01-19T03:36:55.963Z,99.99
2017-01-19T03:38:07.411Z,99.99
2017-01-19T03:39:18.807Z,99.99
2017-01-19T03:40:30.210Z,99.99
2017-01-19T03:41:41.605Z,99.99
2017-01-19T03:42:53.005Z,99.99
2017-01-19T03:44:04.445Z,99.99
2017-01-19T03:45:15.842Z,99.99
2017-01-19T03:46:27.242Z,99.99
2017-01-19T03:47:38.837Z,99.99
2017-01-19T03:48:50.235Z,99.99
2017-01-19T03:50:01.677Z,99.99
2017-01-19T03:51:13.065Z,99.99
2017-01-19T03:52:24.461Z,99.99
2017-01-19T03:53:35.888Z,99.99
2017-01-19T03:54:47.289Z,99.99
2017-01-19T03:55:58.732Z,99.99
2017-01-19T03:57:10.129Z,99.99
2017-01-19T03:58:21.529Z,99.99
2017-01-19T03:59:32.935Z,99.99
2017-01-19T04:00:44.358Z,99.99
2017-01-19T04:01:55.813Z,99.99
2017-01-19T04:03:07.205Z,99.99
2017-01-19T04:04:18.597Z,99.99
2017-01-19T04:05:30.187Z,99.99
2017-01-19T04:06:41.582Z,99.99
2017-01-19T04:07:53.030Z,99.99
2017-01-19T04:09:04.427Z,99.99
2017-01-19T04:10:15.819Z,99.99
2017-01-19T04:11:27.236Z,99.99
2017-01-19T04:12:38.628Z,99.99
2017-01-19T04:13:50.112Z,99.99
2017-01-19T04:15:01.510Z,99.99
2017-01-19T04:16:13.100Z,99.99
2017-01-19T04:17:24.487Z,99.99
2017-01-19T04:18:35.874Z,99.99
2017-01-19T04:19:47.318Z,99.99
2017-01-19T04:20:58.713Z,99.99
2017-01-19T04:22:10.112Z,99.99
2017-01-19T04:23:21.510Z,99.99
2017-01-19T04:24:32.909Z,99.99
2017-01-19T04:25:44.361Z,99.99
2017-01-19T04:26:55.955Z,99.99
2017-01-19T04:28:07.555Z,99.99
2017-01-19T04:29:18.957Z,99.99
2017-01-19T04:30:30.356Z,99.99
2017-01-19T04:31:42.005Z,99.99
2017-01-19T04:32:53.400Z,99.99
2017-01-19T04:34:04.792Z,99.99
2017-01-19T04:35:16.185Z,99.99
2017-01-19T04:36:27.776Z,99.99
2017-01-19T04:37:39.216Z,99.99
2017-01-19T04:38:50.618Z,99.99
2017-01-19T04:40:02.210Z,99.99
2017-01-19T04:41:13.602Z,99.99
2017-01-19T04:42:25.031Z,99.99
2017-01-19T04:43:36.674Z,99.99
2017-01-19T04:44:48.063Z,99.99
2017-01-19T04:45:59.465Z,99.99
2017-01-19T04:47:10.861Z,99.99
2017-01-19T04:48:22.255Z,99.99
2017-01-19T04:49:33.697Z,99.99
2017-01-19T04:50:45.087Z,99.99
2017-01-19T04:51:56.681Z,99.99
2017-01-19T04:53:08.275Z,99.99
2017-01-19T04:54:19.664Z,99.99
2017-01-19T04:55:31.111Z,99.99
2017-01-19T04:56:42.499Z,99.99
2017-01-19T04:57:53.883Z,99.99
2017-01-19T04:59:05.480Z,99.99
2017-01-19T05:00:17.072Z,99.99
2017-01-19T05:01:28.521Z,99.99
2017-01-19T05:02:39.908Z,99.99
2017-01-19T05:03:51.322Z,99.99
2017-01-19T05:05:02.920Z,99.99
2017-01-19T05:06:14.337Z,99.99
2017-01-19T05:07:25.977Z,99.99
2017-01-19T05:08:37.368Z,99.99
2017-01-19T05:09:48.759Z,99.99
2017-01-19T05:11:00.148Z,99.99
2017-01-19T05:12:11.541Z,99.99
2017-01-19T05:13:23.183Z,99.99
2017-01-19T05:14:34.576Z,99.99
2017-01-19T05:15:45.971Z,99.99
2017-01-19T05:16:57.367Z,99.99
2017-01-19T05:18:08.757Z,99.99
2017-01-19T05:19:20.198Z,99.99
2017-01-19T05:20:31.794Z,99.99
2017-01-19T05:21:43.407Z,99.99
2017-01-19T05:22:54.803Z,99.99
2017-01-19T05:24:06.392Z,99.99
2017-01-19T05:25:17.832Z,99.99
2017-01-19T05:26:29.221Z,99.99
2017-01-19T05:27:40.813Z,99.99
2017-01-19T05:28:52.203Z,99.99
2017-01-19T05:30:03.632Z,99.99
2017-01-19T05:31:15.285Z,99.99
2017-01-19T05:32:26.674Z,99.99
2017-01-19T05:33:38.068Z,99.99
2017-01-19T05:34:49.464Z,99.99
2017-01-19T05:36:00.887Z,99.99
2017-01-19T05:37:12.323Z,99.99
2017-01-19T05:38:23.721Z,99.99
2017-01-19T05:39:35.110Z,99.99
2017-01-19T05:40:46.507Z,99.99
2017-01-19T05:41:57.900Z,99.99
2017-01-19T05:43:09.341Z,99.99
2017-01-19T05:44:20.778Z,99.99
2017-01-19T05:45:32.162Z,99.99
2017-01-19T05:46:43.555Z,99.99
2017-01-19T05:47:54.944Z,99.99
2017-01-19T05:49:06.388Z,99.99
2017-01-19T05:50:17.785Z,99.99
2017-01-19T05:51:29.210Z,99.99
2017-01-19T05:52:40.599Z,99.99
2017-01-19T05:53:51.985Z,99.99
2017-01-19T05:55:03.440Z,99.99
2017-01-19T05:56:14.834Z,99.99
2017-01-19T05:57:26.428Z,99.99
2017-01-19T05:58:37.830Z,99.99
2017-01-19T05:59:49.230Z,99.99
2017-01-19T06:01:00.674Z,99.99
2017-01-19T06:02:12.071Z,99.99
2017-01-19T06:03:23.662Z,99.99
2017-01-19T06:04:35.459Z,99.99
2017-01-19T06:05:46.863Z,99.99
2017-01-19T06:06:58.306Z,99.99
2017-01-19T06:08:09.697Z,99.99
2017-01-19T06:09:21.094Z,99.99
2017-01-19T06:10:32.489Z,99.99
2017-01-19T06:11:43.895Z,99.99
2017-01-19T06:12:55.342Z,99.99
2017-01-19T06:14:06.746Z,99.99
2017-01-19T06:15:18.337Z,99.99
2017-01-19T06:16:29.734Z,99.99
2017-01-19T06:17:41.337Z,99.99
2017-01-19T06:18:52.773Z,99.99
2017-01-19T06:20:04.172Z,99.99
2017-01-19T06:21:15.563Z,99.99
2017-01-19T06:22:26.950Z,99.99
2017-01-19T06:23:38.341Z,99.99
2017-01-19T06:24:49.985Z,99.99
2017-01-19T06:26:01.380Z,99.99
2017-01-19T06:27:12.768Z,99.99
2017-01-19T06:28:24.368Z,99.99
2017-01-19T06:29:35.770Z,99.99
2017-01-19T06:30:47.208Z,99.99
2017-01-19T06:31:58.599Z,99.99
2017-01-19T06:33:09.984Z,99.99
2017-01-19T06:34:21.378Z,99.99
2017-01-19T06:35:32.778Z,99.99
2017-01-19T06:36:44.217Z,99.99
2017-01-19T06:37:55.810Z,99.99
2017-01-19T06:39:07.213Z,99.99
2017-01-19T06:40:18.609Z,99.99
2017-01-19T06:41:30.024Z,99.99
2017-01-19T06:42:41.470Z,99.99
2017-01-19T06:43:52.857Z,99.99
2017-01-19T06:45:04.252Z,99.99
2017-01-19T06:46:16.049Z,99.99
2017-01-19T06:47:27.441Z,99.99
2017-01-19T06:48:38.883Z,99.99
2017-01-19T06:49:50.671Z,99.99
2017-01-19T06:51:02.088Z,99.99
2017-01-19T06:52:13.687Z,99.99
2017-01-19T06:53:25.284Z,99.99
2017-01-19T06:54:36.731Z,99.99
2017-01-19T06:55:48.121Z,99.99
2017-01-19T06:56:59.516Z,99.99
2017-01-19T06:58:11.138Z,99.99
2017-01-19T06:59:22.527Z,99.99
2017-01-19T07:00:34.372Z,99.99
2017-01-19T07:01:45.768Z,99.99
2017-01-19T07:02:57.165Z,99.99
2017-01-19T07:04:08.760Z,99.99
2017-01-19T07:05:20.151Z,99.99
2017-01-19T07:06:31.598Z,99.99
2017-01-19T07:07:42.991Z,99.99
2017-01-19T07:08:54.384Z,99.99
2017-01-19T07:10:05.775Z,99.99
2017-01-19T07:11:17.165Z,99.99
2017-01-19T07:12:28.611Z,99.99
2017-01-19T07:13:40.003Z,99.99
2017-01-19T07:14:51.599Z,99.99
2017-01-19T07:16:03.394Z,99.99
2017-01-19T07:17:14.785Z,99.99
2017-01-19T07:18:26.230Z,99.99
2017-01-19T07:19:37.621Z,99.99
2017-01-19T07:20:49.003Z,99.99
2017-01-19T07:22:00.402Z,99.99
2017-01-19T07:23:11.993Z,99.99
2017-01-19T07:24:23.441Z,99.99
2017-01-19T07:25:34.866Z,99.99
2017-01-19T07:26:46.458Z,99.99
2017-01-19T07:27:58.250Z,99.99
2017-01-19T07:29:09.651Z,99.99
2017-01-19T07:30:21.090Z,99.99
2017-01-19T07:31:32.491Z,99.99
2017-01-19T07:32:44.091Z,99.99
2017-01-19T07:33:55.508Z,99.99
2017-01-19T07:35:07.102Z,99.99
2017-01-19T07:36:18.554Z,99.99
2017-01-19T07:37:29.948Z,99.99
2017-01-19T07:38:41.342Z,99.99
2017-01-19T07:39:52.938Z,99.99
2017-01-19T07:41:04.331Z,99.99
2017-01-19T07:42:15.773Z,99.99
2017-01-19T07:43:27.370Z,99.99
2017-01-19T07:44:38.759Z,99.99
2017-01-19T07:45:50.146Z,99.99
2017-01-19T07:47:01.541Z,99.99
2017-01-19T07:48:12.977Z,99.99
2017-01-19T07:49:24.372Z,99.99
2017-01-19T07:50:35.765Z,99.99
2017-01-19T07:51:47.154Z,99.99
2017-01-19T07:52:58.547Z,99.99
2017-01-19T07:54:09.989Z,99.99
2017-01-19T07:55:21.388Z,99.99
2017-01-19T07:56:32.771Z,99.99
2017-01-19T07:57:44.162Z,99.99
2017-01-19T07:58:55.553Z,99.99
2017-01-19T08:00:07.019Z,99.99
2017-01-19T08:01:18.405Z,99.99
2017-01-19T08:02:30.005Z,99.99
2017-01-19T08:03:41.401Z,99.99
2017-01-19T08:04:52.798Z,99.99
2017-01-19T08:06:04.241Z,99.99
2017-01-19T08:07:15.632Z,99.99
2017-01-19T08:08:27.032Z,99.99
2017-01-19T08:09:38.428Z,99.99
2017-01-19T08:10:49.816Z,99.99
2017-01-19T08:12:01.282Z,99.99
2017-01-19T08:13:12.675Z,99.99
2017-01-19T08:14:24.272Z,99.99
2017-01-19T08:15:35.661Z,99.99
2017-01-19T08:16:47.060Z,99.99
2017-01-19T08:17:58.500Z,99.99
2017-01-19T08:19:09.892Z,99.99
2017-01-19T08:20:21.295Z,99.99
2017-01-19T08:21:32.689Z,99.99
2017-01-19T08:22:44.291Z,99.99
2017-01-19T08:23:55.742Z,99.99
2017-01-19T08:25:07.133Z,99.99
2017-01-19T08:26:18.528Z,99.99
2017-01-19T08:27:29.926Z,99.99
2017-01-19T08:28:41.320Z,99.99
2017-01-19T08:29:52.768Z,99.99
2017-01-19T08:31:04.166Z,99.99
2017-01-19T08:32:15.558Z,99.99
2017-01-19T08:33:26.953Z,99.99
2017-01-19T08:34:38.344Z,99.99
2017-01-19T08:35:49.787Z,99.99
2017-01-19T08:37:01.181Z,99.99
2017-01-19T08:38:12.586Z,99.99
2017-01-19T08:39:23.975Z,99.99
2017-01-19T08:40:35.371Z,99.99
2017-01-19T08:41:46.917Z,99.99
2017-01-19T08:42:58.521Z,99.99
2017-01-19T08:44:09.920Z,99.99
2017-01-19T08:45:21.328Z,99.99
2017-01-19T08:46:32.747Z,99.99
2017-01-19T08:47:44.201Z,99.99
2017-01-19T08:48:55.995Z,99.99
2017-01-19T08:50:07.398Z,99.99
2017-01-19T08:51:18.792Z,99.99
2017-01-19T08:52:30.388Z,99.99
2017-01-19T08:53:42.035Z,99.99
2017-01-19T08:54:53.438Z,99.99
2017-01-19T08:56:04.836Z,99.99
2017-01-19T08:57:16.227Z,99.99
2017-01-19T08:58:27.626Z,99.99
2017-01-19T08:59:39.480Z,99.99
2017-01-19T09:00:50.887Z,99.99
2017-01-19T09:02:02.284Z,99.99
2017-01-19T09:03:13.884Z,99.99
2017-01-19T09:04:25.274Z,99.99
2017-01-19T09:05:36.723Z,99.99
2017-01-19T09:06:48.163Z,99.99
2017-01-19T09:07:59.565Z,99.99
2017-01-19T09:09:10.963Z,99.99
2017-01-19T09:10:22.365Z,99.99
2017-01-19T09:11:33.811Z,99.99
2017-01-19T09:12:45.201Z,99.99
2017-01-19T09:13:56.595Z,99.99
2017-01-19T09:15:07.995Z,99.99
2017-01-19T09:16:19.384Z,99.99
2017-01-19T09:17:31.029Z,99.99
2017-01-19T09:18:42.437Z,99.99
2017-01-19T09:19:53.829Z,99.99
2017-01-19T09:21:05.228Z,99.99
2017-01-19T09:22:16.831Z,99.99
2017-01-19T09:23:28.283Z,99.99
2017-01-19T09:24:39.684Z,99.05
2017-01-19T09:25:51.085Z,94.46
2017-01-19T09:27:02.485Z,90.05
2017-01-19T09:28:13.891Z,84.59
2017-01-19T09:29:25.345Z,81.04
2017-01-19T09:30:36.740Z,77.56
2017-01-19T09:31:48.143Z,75.51
2017-01-19T09:32:59.544Z,72.85
2017-01-19T09:34:10.952Z,72.13
2017-01-19T09:35:22.403Z,71.75
2017-01-19T09:36:33.808Z,69.85
2017-01-19T09:37:45.413Z,68.33
2017-01-19T09:38:57.020Z,69.66
2017-01-19T09:40:08.452Z,69.37
2017-01-19T09:41:19.911Z,69.43
2017-01-19T09:42:31.318Z,71.43
2017-01-19T09:43:42.727Z,71.48
2017-01-19T09:44:54.330Z,72.21
2017-01-19T09:46:05.734Z,73.63
2017-01-19T09:47:17.188Z,75.15
2017-01-19T09:48:28.624Z,77.29
2017-01-19T09:49:40.036Z,78.05
2017-01-19T09:50:51.640Z,79.19
2017-01-19T09:52:03.250Z,79.57
2017-01-19T09:53:14.696Z,80.14
2017-01-19T09:54:26.133Z,79.1
2017-01-19T09:55:37.538Z,79.19
2017-01-19T09:56:48.938Z,79.72
2017-01-19T09:58:00.340Z,79.63
2017-01-19T09:59:11.999Z,79.72
2017-01-19T10:00:23.607Z,80.19
2017-01-19T10:01:35.012Z,80.86
2017-01-19T10:02:46.416Z,80.29
2017-01-19T10:03:57.820Z,79.91
2017-01-19T10:05:09.470Z,82.85
2017-01-19T10:06:21.074Z,82.56
2017-01-19T10:07:32.883Z,82.09
2017-01-19T10:08:44.279Z,80.95
2017-01-19T10:09:55.683Z,78.77
2017-01-19T10:11:07.341Z,79.25
2017-01-19T10:12:18.944Z,79.53
2017-01-19T10:13:30.748Z,79.72
2017-01-19T10:14:42.146Z,81.05
2017-01-19T10:15:53.544Z,83.7
2017-01-19T10:17:05.200Z,86.45
2017-01-19T10:18:16.599Z,87.02
2017-01-19T10:19:28.002Z,85.03
2017-01-19T10:20:39.604Z,81.52
2017-01-19T10:21:51.211Z,82.75
2017-01-19T10:23:02.668Z,83.32
2017-01-19T10:24:14.071Z,80.63
2017-01-19T10:25:25.468Z,81.1
2017-01-19T10:26:36.871Z,82.14
2017-01-19T10:27:48.271Z,85.65
2017-01-19T10:28:59.717Z,86.12
2017-01-19T10:30:11.144Z,87.64
2017-01-19T10:31:22.751Z,86.79
2017-01-19T10:32:34.154Z,86.6
2017-01-19T10:33:45.959Z,84.42
2017-01-19T10:34:57.610Z,81.95
2017-01-19T10:36:09.013Z,80.72
2017-01-19T10:37:20.410Z,83.09
2017-01-19T10:38:31.805Z,86.88
2017-01-19T10:39:43.205Z,87.92
2017-01-19T10:40:54.664Z,85.55
2017-01-19T10:42:06.066Z,85.46
2017-01-19T10:43:17.469Z,83.66
2017-01-19T10:44:29.068Z,81.86
2017-01-19T10:45:40.467Z,83.28
2017-01-19T10:46:51.916Z,82.9
2017-01-19T10:48:03.315Z,83.37
2017-01-19T10:49:14.716Z,85.69
2017-01-19T10:50:26.124Z,85.97
2017-01-19T10:51:37.526Z,81.71
2017-01-19T10:52:48.980Z,78.87
2017-01-19T10:54:00.581Z,78.87
2017-01-19T10:55:12.184Z,81.62
2017-01-19T10:56:23.582Z,83.89
2017-01-19T10:57:34.985Z,81.99
2017-01-19T10:58:46.632Z,83.23
2017-01-19T10:59:58.032Z,82.98
2017-01-19T11:01:09.833Z,79.66
2017-01-19T11:02:21.227Z,78.34
2017-01-19T11:03:32.849Z,77.39
2017-01-19T11:04:44.303Z,76.06
2017-01-19T11:05:55.712Z,76.54
2017-01-19T11:07:07.131Z,77.2
2017-01-19T11:08:18.531Z,76.73
2017-01-19T11:09:29.937Z,75.05
2017-01-19T11:10:41.390Z,76.2
2017-01-19T11:11:52.801Z,75.57
2017-01-19T11:13:04.204Z,73.67
2017-01-19T11:14:15.602Z,75.85
2017-01-19T11:15:27.003Z,72.85
2017-01-19T11:16:38.453Z,71.52
2017-01-19T11:17:49.863Z,69.27
2017-01-19T11:19:01.271Z,67.28
2017-01-19T11:20:12.692Z,68.23
2017-01-19T11:21:24.098Z,68.67
2017-01-19T11:22:35.574Z,70.76
2017-01-19T11:23:46.976Z,71.52
2017-01-19T11:24:58.379Z,73.99
2017-01-19T11:26:09.781Z,71.62
2017-01-19T11:27:21.195Z,68.48
2017-01-19T11:28:32.651Z,69.24
2017-01-19T11:29:44.052Z,72.75
2017-01-19T11:30:55.460Z,73.65
2017-01-19T11:32:06.892Z,74.85
2017-01-19T11:33:18.300Z,74.18
2017-01-19T11:34:29.953Z,71.33
2017-01-19T11:35:41.363Z,71.52
2017-01-19T11:36:52.795Z,72.06
2017-01-19T11:38:04.205Z,74.33
2017-01-19T11:39:15.614Z,76.95
2017-01-19T11:40:27.100Z,76.48
2017-01-19T11:41:38.510Z,76.95
2017-01-19T11:42:49.914Z,78.66
2017-01-19T11:44:01.316Z,78.53
2017-01-19T11:45:12.729Z,80.14
2017-01-19T11:46:24.177Z,80.62
2017-01-19T11:47:35.583Z,80.33
2017-01-19T11:48:46.996Z,84.98
2017-01-19T11:49:58.396Z,84.12
2017-01-19T11:51:09.791Z,79.61
2017-01-19T11:52:21.238Z,76.1
2017-01-19T11:53:32.643Z,73.57
2017-01-19T11:54:44.064Z,70.92
2017-01-19T11:55:55.699Z,69.3
2017-01-19T11:57:07.101Z,69.4
2017-01-19T11:58:18.562Z,71.86
2017-01-19T11:59:29.990Z,70
2017-01-19T12:00:41.398Z,72.09
2017-01-19T12:01:53.013Z,68.71
2017-01-19T12:03:04.416Z,65.38
2017-01-19T12:04:15.876Z,65.09
2017-01-19T12:05:27.483Z,64.65
2017-01-19T12:06:38.892Z,64.27
2017-01-19T12:07:50.297Z,66.27
2017-01-19T12:09:01.695Z,66.84
2017-01-19T12:10:13.176Z,66.97
2017-01-19T12:11:24.581Z,63.17
2017-01-19T12:12:35.985Z,63.35
2017-01-19T12:13:47.388Z,63.17
2017-01-19T12:14:59.022Z,64.78
2017-01-19T12:16:10.480Z,64.05
2017-01-19T12:17:22.088Z,64.78
2017-01-19T12:18:33.508Z,62.27
2017-01-19T12:19:45.120Z,64.65
2017-01-19T12:20:56.525Z,69.02
2017-01-19T12:22:07.970Z,69.94
2017-01-19T12:23:19.579Z,71.41
2017-01-19T12:24:30.982Z,69.5
2017-01-19T12:25:42.388Z,71.34
2017-01-19T12:26:53.789Z,70.3
2017-01-19T12:28:05.451Z,63.76
2017-01-19T12:29:16.866Z,62.88
2017-01-19T12:30:28.272Z,60.15
2017-01-19T12:31:39.672Z,60.72
2017-01-19T12:32:51.077Z,59.67
2017-01-19T12:34:02.533Z,59.01
2017-01-19T12:35:13.942Z,57.01
2017-01-19T12:36:25.349Z,57.01
2017-01-19T12:37:36.763Z,60.63
2017-01-19T12:38:48.398Z,60.24
2017-01-19T12:39:59.849Z,61.74
2017-01-19T12:41:11.449Z,65.73
2017-01-19T12:42:22.871Z,67.44
2017-01-19T12:43:34.285Z,63.76
2017-01-19T12:44:45.695Z,65.06
2017-01-19T12:45:57.149Z,66.49
2017-01-19T12:47:08.562Z,64.62
2017-01-19T12:48:19.970Z,59.48
2017-01-19T12:49:31.372Z,60.53
2017-01-19T12:50:42.778Z,59.03
2017-01-19T12:51:54.436Z,54.78
2017-01-19T12:53:05.869Z,53.73
2017-01-19T12:54:17.473Z,53.16
2017-01-19T12:55:28.880Z,52.52
2017-01-19T12:56:40.283Z,50.71
2017-01-19T12:57:51.738Z,50.99
2017-01-19T12:59:03.166Z,52.52
2017-01-19T13:00:14.572Z,50.04
2017-01-19T13:01:26.002Z,50.71
2017-01-19T13:02:37.431Z,49.47
2017-01-19T13:03:49.086Z,48.23
2017-01-19T13:05:00.503Z,48.32
2017-01-19T13:06:11.912Z,50.99
2017-01-19T13:07:23.332Z,48.97
2017-01-19T13:08:34.737Z,49.06
2017-01-19T13:09:46.198Z,50.87
2017-01-19T13:10:57.599Z,48.3
2017-01-19T13:12:09.205Z,46.99
2017-01-19T13:13:20.641Z,46.68
2017-01-19T13:14:32.051Z,47.82
2017-01-19T13:15:43.711Z,49.8
2017-01-19T13:16:55.312Z,53.23
2017-01-19T13:18:06.749Z,53.61
2017-01-19T13:19:18.149Z,51.99
2017-01-19T13:20:29.550Z,51.7
2017-01-19T13:21:40.999Z,50.66
2017-01-19T13:22:52.396Z,53.87
2017-01-19T13:24:03.809Z,52.34
2017-01-19T13:25:15.210Z,55.01
2017-01-19T13:26:26.618Z,52.82
2017-01-19T13:27:38.307Z,52.53
2017-01-19T13:28:49.713Z,52.34
2017-01-19T13:30:01.322Z,53.49
2017-01-19T13:31:13.120Z,53.11
2017-01-19T13:32:24.531Z,51.87
2017-01-19T13:33:36.199Z,53.46
2017-01-19T13:34:47.601Z,56.12
2017-01-19T13:35:59.210Z,55.74
2017-01-19T13:37:10.620Z,54.77
2017-01-19T13:38:22.034Z,57.52
2017-01-19T13:39:33.484Z,59.14
2017-01-19T13:40:44.885Z,61.13
2017-01-19T13:41:56.711Z,63.42
2017-01-19T13:43:08.111Z,61.9
2017-01-19T13:44:19.540Z,61.8
2017-01-19T13:45:30.990Z,62.27
2017-01-19T13:46:42.391Z,63.51
2017-01-19T13:47:53.803Z,61.42
2017-01-19T13:49:05.214Z,57.14
2017-01-19T13:50:16.621Z,59.71
2017-01-19T13:51:28.068Z,59.61
2017-01-19T13:52:39.473Z,60.09
2017-01-19T13:53:50.900Z,58.09
2017-01-19T13:55:02.302Z,56.85
2017-01-19T13:56:13.697Z,56.29
2017-01-19T13:57:25.159Z,55.21
2017-01-19T13:58:36.573Z,54.74
2017-01-19T13:59:47.977Z,57.78
2017-01-19T14:00:59.389Z,61.87
2017-01-19T14:02:10.820Z,63.48
2017-01-19T14:03:22.275Z,63.17
2017-01-19T14:04:33.667Z,61.74
2017-01-19T14:05:45.061Z,62.78
2017-01-19T14:06:56.459Z,64.17
2017-01-19T14:08:07.860Z,62.66
2017-01-19T14:09:19.312Z,63.79
2017-01-19T14:10:30.721Z,64.65
2017-01-19T14:11:42.119Z,64.94
2017-01-19T14:12:53.725Z,63.23
2017-01-19T14:14:05.329Z,62.53
2017-01-19T14:15:16.786Z,66.89
2017-01-19T14:16:28.193Z,68.98
2017-01-19T14:17:39.800Z,68.41
2017-01-19T14:18:51.215Z,71.07
2017-01-19T14:20:02.611Z,76.2
2017-01-19T14:21:14.061Z,79.33
2017-01-19T14:22:25.660Z,77.9
2017-01-19T14:23:37.068Z,76.95
2017-01-19T14:24:48.473Z,78.95
2017-01-19T14:25:59.876Z,79.04
2017-01-19T14:27:11.753Z,79.1
2017-01-19T14:28:23.175Z,82.23
2017-01-19T14:29:34.777Z,82.51
2017-01-19T14:30:46.186Z,82.23
2017-01-19T14:31:57.587Z,80.33
2017-01-19T14:33:09.039Z,78.15
2017-01-19T14:34:20.444Z,76.92
2017-01-19T14:35:32.269Z,76.92
2017-01-19T14:36:43.868Z,75.96
2017-01-19T14:37:55.669Z,77.48
2017-01-19T14:39:07.119Z,80.33
2017-01-19T14:40:18.722Z,79.34
2017-01-19T14:41:30.129Z,79.63
2017-01-19T14:42:41.530Z,78.77
2017-01-19T14:43:52.927Z,83.23
2017-01-19T14:45:04.376Z,80.76
2017-01-19T14:46:15.776Z,79.63
2017-01-19T14:47:27.181Z,79.91
2017-01-19T14:48:38.582Z,80.86
2017-01-19T14:49:50.183Z,80.86
2017-01-19T14:51:01.629Z,80
2017-01-19T14:52:13.029Z,82.66
2017-01-19T14:53:24.429Z,84.08
2017-01-19T14:54:35.833Z,78.58
2017-01-19T14:55:47.238Z,72.04
2017-01-19T14:56:58.686Z,76.78
2017-01-19T14:58:10.084Z,78.02
2017-01-19T14:59:21.483Z,78.02
2017-01-19T15:00:32.882Z,80.1
2017-01-19T15:01:44.281Z,78.02
2017-01-19T15:02:55.732Z,80.95
2017-01-19T15:04:07.128Z,81.99
2017-01-19T15:05:18.534Z,81.76
2017-01-19T15:06:30.142Z,83.42
2017-01-19T15:07:41.546Z,81.76
2017-01-19T15:08:53.203Z,83.18
2017-01-19T15:10:04.608Z,83.94
2017-01-19T15:11:16.013Z,83.37
2017-01-19T15:12:27.414Z,85.08
2017-01-19T15:13:38.839Z,85.46
2017-01-19T15:14:50.301Z,87.07
2017-01-19T15:16:01.903Z,89.91
2017-01-19T15:17:13.324Z,93.8
2017-01-19T15:18:24.722Z,97.78
2017-01-19T15:19:36.121Z,99.99
2017-01-19T15:20:47.576Z,99.99